createdAt,value
2022-10-09T00:00:11.060Z,100815.41
2022-10-09T00:01:19.062Z,100812.98
2022-10-09T00:02:11.120Z,100809.50
2022-10-09T00:03:11.066Z,100807.21
2022-10-09T00:04:11.061Z,100806.35
2022-10-09T00:05:11.121Z,100800.23
2022-10-09T00:06:11.065Z,100801.21
2022-10-09T00:07:11.060Z,100801.03
2022-10-09T00:08:11.062Z,100799.84
2022-10-09T00:09:11.070Z,100801.88
2022-10-09T00:10:11.065Z,100798.36
2022-10-09T00:11:12.065Z,100796.56
2022-10-09T00:12:11.070Z,100794.82
2022-10-09T00:13:11.065Z,100797.12
2022-10-09T00:14:11.062Z,100795.19
2022-10-09T00:15:11.070Z,100792.94
2022-10-09T00:16:12.066Z,100792.62
2022-10-09T00:17:11.120Z,100791.26
2022-10-09T00:18:11.062Z,100790.61
2022-10-09T00:19:11.065Z,100790.16
2022-10-09T00:20:11.066Z,100791.61
2022-10-09T00:21:21.064Z,100793.69
2022-10-09T00:22:11.064Z,100791.86
2022-10-09T00:23:11.058Z,100789.21
2022-10-09T00:24:11.061Z,100789.55
2022-10-09T00:25:11.066Z,100786.68
2022-10-09T00:26:11.060Z,100782.38
2022-10-09T00:27:11.055Z,100782.92
2022-10-09T00:28:11.138Z,100780.49
2022-10-09T00:29:11.061Z,100777.15
2022-10-09T00:30:11.055Z,100776.89
2022-10-09T00:31:11.131Z,100776.52
2022-10-09T00:32:11.059Z,100773.46
2022-10-09T00:33:11.057Z,100773.55
2022-10-09T00:34:11.059Z,100772.72
2022-10-09T00:35:11.063Z,100773.82
2022-10-09T00:36:15.059Z,100774.57
2022-10-09T00:37:11.061Z,100774.64
2022-10-09T00:38:11.068Z,100772.70
2022-10-09T00:39:11.058Z,100771.72
2022-10-09T00:40:11.064Z,100768.90
2022-10-09T00:41:14.060Z,100769.06
2022-10-09T00:42:11.060Z,100766.23
2022-10-09T00:43:18.061Z,100764.14
2022-10-09T00:44:19.068Z,100765.28
2022-10-09T00:45:18.096Z,100769.63
2022-10-09T00:46:19.111Z,100769.61
2022-10-09T00:47:16.063Z,100766.73
2022-10-09T00:48:13.059Z,100763.32
2022-10-09T00:49:19.061Z,100766.96
2022-10-09T00:50:19.059Z,100770.35
2022-10-09T00:51:11.057Z,100761.17
2022-10-09T00:52:11.062Z,100758.95
2022-10-09T00:53:13.058Z,100754.21
2022-10-09T00:54:14.064Z,100754.93
2022-10-09T00:55:11.059Z,100756.40
2022-10-09T00:56:11.062Z,100756.34
2022-10-09T00:57:11.059Z,100754.26
2022-10-09T00:58:11.088Z,100751.85
2022-10-09T00:59:11.068Z,100757.93
2022-10-09T01:00:11.059Z,100756.55
2022-10-09T01:01:11.111Z,100756.99
2022-10-09T01:02:11.120Z,100756.82
2022-10-09T01:03:11.064Z,100757.02
2022-10-09T01:04:11.063Z,100751.62
2022-10-09T01:05:11.068Z,100753.28
2022-10-09T01:06:17.060Z,100755.57
2022-10-09T01:07:21.057Z,100760.05
2022-10-09T01:08:18.061Z,100756.34
2022-10-09T01:09:16.071Z,100752.06
2022-10-09T01:10:19.061Z,100752.91
2022-10-09T01:11:19.059Z,100755.41
2022-10-09T01:12:20.063Z,100753.58
2022-10-09T01:13:19.060Z,100755.75
2022-10-09T01:14:19.069Z,100749.21
2022-10-09T01:15:19.063Z,100751.06
2022-10-09T01:16:21.522Z,100750.96
2022-10-09T01:17:20.106Z,100750.68
2022-10-09T01:18:22.066Z,100752.90
2022-10-09T01:19:19.074Z,100753.77
2022-10-09T01:20:22.063Z,100752.95
2022-10-09T01:21:22.055Z,100754.58
2022-10-09T01:22:19.054Z,100756.87
2022-10-09T01:23:22.057Z,100748.43
2022-10-09T01:24:17.061Z,100745.28
2022-10-09T01:25:14.059Z,100742.80
2022-10-09T01:26:22.056Z,100741.64
2022-10-09T01:27:19.054Z,100740.23
2022-10-09T01:28:11.090Z,100740.68
2022-10-09T01:29:11.067Z,100737.29
2022-10-09T01:30:11.056Z,100741.09
2022-10-09T01:31:12.171Z,100736.26
2022-10-09T01:32:11.065Z,100736.19
2022-10-09T01:33:11.062Z,100735.30
2022-10-09T01:34:11.055Z,100732.43
2022-10-09T01:35:12.061Z,100735.91
2022-10-09T01:36:11.060Z,100735.47
2022-10-09T01:37:11.060Z,100734.84
2022-10-09T01:38:11.057Z,100731.50
2022-10-09T01:39:13.061Z,100731.57
2022-10-09T01:40:12.057Z,100728.37
2022-10-09T01:41:11.058Z,100723.56
2022-10-09T01:42:11.060Z,100720.13
2022-10-09T01:43:11.059Z,100719.74
2022-10-09T01:44:18.062Z,100721.14
2022-10-09T01:45:11.069Z,100717.20
2022-10-09T01:46:19.149Z,100714.62
2022-10-09T01:47:15.058Z,100713.07
2022-10-09T01:48:13.060Z,100711.30
2022-10-09T01:49:22.061Z,100713.36
2022-10-09T01:50:19.061Z,100711.58
2022-10-09T01:51:11.059Z,100713.59
2022-10-09T01:52:18.058Z,100710.83
2022-10-09T01:53:12.068Z,100707.98
2022-10-09T01:54:13.060Z,100706.82
2022-10-09T01:55:19.058Z,100706.71
2022-10-09T01:56:18.060Z,100705.29
2022-10-09T01:57:12.068Z,100700.64
2022-10-09T01:58:19.063Z,100695.63
2022-10-09T01:59:16.323Z,100693.44
2022-10-09T02:00:12.059Z,100693.92
2022-10-09T02:01:19.076Z,100689.97
2022-10-09T02:02:11.131Z,100688.10
2022-10-09T02:03:13.058Z,100687.94
2022-10-09T02:04:12.067Z,100690.28
2022-10-09T02:05:15.068Z,100683.88
2022-10-09T02:06:12.061Z,100686.94
2022-10-09T02:07:11.066Z,100686.45
2022-10-09T02:08:12.064Z,100683.19
2022-10-09T02:09:15.059Z,100682.66
2022-10-09T02:10:11.067Z,100681.04
2022-10-09T02:11:11.070Z,100680.87
2022-10-09T02:12:11.066Z,100681.19
2022-10-09T02:13:11.056Z,100678.00
2022-10-09T02:14:11.064Z,100675.95
2022-10-09T02:15:11.062Z,100673.38
2022-10-09T02:16:21.126Z,100673.34
2022-10-09T02:17:19.061Z,100668.48
2022-10-09T02:18:14.068Z,100664.39
2022-10-09T02:19:22.065Z,100662.00
2022-10-09T02:20:22.062Z,100664.05
2022-10-09T02:21:15.055Z,100660.14
2022-10-09T02:22:15.065Z,100661.87
2022-10-09T02:23:11.059Z,100659.85
2022-10-09T02:24:13.056Z,100661.48
2022-10-09T02:25:11.058Z,100661.41
2022-10-09T02:26:11.066Z,100657.61
2022-10-09T02:27:11.059Z,100655.93
2022-10-09T02:28:11.083Z,100655.06
2022-10-09T02:29:11.060Z,100649.70
2022-10-09T02:30:11.058Z,100648.81
2022-10-09T02:31:19.151Z,100648.65
2022-10-09T02:32:11.060Z,100645.95
2022-10-09T02:33:11.065Z,100649.63
2022-10-09T02:34:16.058Z,100644.77
2022-10-09T02:35:11.058Z,100641.98
2022-10-09T02:36:11.058Z,100641.06
2022-10-09T02:37:11.059Z,100641.48
2022-10-09T02:38:11.058Z,100639.33
2022-10-09T02:39:11.058Z,100638.94
2022-10-09T02:40:11.166Z,100639.78
2022-10-09T02:41:11.066Z,100638.27
2022-10-09T02:42:11.064Z,100635.97
2022-10-09T02:43:11.072Z,100637.06
2022-10-09T02:44:11.063Z,100634.38
2022-10-09T02:45:11.062Z,100632.36
2022-10-09T02:46:11.098Z,100632.68
2022-10-09T02:47:11.059Z,100629.61
2022-10-09T02:48:11.061Z,100631.73
2022-10-09T02:49:11.067Z,100633.01
2022-10-09T02:50:11.079Z,100627.93
2022-10-09T02:51:11.057Z,100629.32
2022-10-09T02:52:11.069Z,100628.38
2022-10-09T02:53:11.061Z,100625.86
2022-10-09T02:54:11.059Z,100626.14
2022-10-09T02:55:11.066Z,100623.91
2022-10-09T02:56:11.062Z,100619.94
2022-10-09T02:57:11.059Z,100623.34
2022-10-09T02:58:11.060Z,100621.32
2022-10-09T02:59:11.069Z,100620.93
2022-10-09T03:00:11.059Z,100621.67
2022-10-09T03:01:11.060Z,100623.17
2022-10-09T03:02:11.123Z,100618.76
2022-10-09T03:03:11.059Z,100619.08
2022-10-09T03:04:11.062Z,100616.30
2022-10-09T03:05:11.067Z,100615.77
2022-10-09T03:06:11.072Z,100615.38
2022-10-09T03:07:11.065Z,100617.15
2022-10-09T03:08:11.068Z,100618.43
2022-10-09T03:09:11.061Z,100615.08
2022-10-09T03:10:11.064Z,100614.59
2022-10-09T03:11:11.069Z,100614.56
2022-10-09T03:12:11.061Z,100611.35
2022-10-09T03:13:11.058Z,100611.87
2022-10-09T03:14:11.064Z,100614.08
2022-10-09T03:15:11.062Z,100611.05
2022-10-09T03:16:15.124Z,100613.19
2022-10-09T03:17:11.064Z,100611.80
2022-10-09T03:18:11.063Z,100613.26
2022-10-09T03:19:11.061Z,100610.53
2022-10-09T03:20:11.064Z,100608.49
2022-10-09T03:21:15.060Z,100606.23
2022-10-09T03:22:11.057Z,100607.29
2022-10-09T03:23:11.059Z,100604.64
2022-10-09T03:24:11.059Z,100604.85
2022-10-09T03:25:11.056Z,100604.36
2022-10-09T03:26:11.058Z,100604.50
2022-10-09T03:27:11.067Z,100602.80
2022-10-09T03:28:11.104Z,100602.82
2022-10-09T03:29:11.059Z,100600.89
2022-10-09T03:30:11.066Z,100601.70
2022-10-09T03:31:18.931Z,100602.66
2022-10-09T03:32:13.113Z,100598.04
2022-10-09T03:33:11.063Z,100598.09
2022-10-09T03:34:11.065Z,100596.09
2022-10-09T03:35:11.054Z,100594.29
2022-10-09T03:36:11.057Z,100594.27
2022-10-09T03:37:11.060Z,100590.56
2022-10-09T03:38:11.059Z,100591.72
2022-10-09T03:39:11.068Z,100589.23
2022-10-09T03:40:11.060Z,100590.72
2022-10-09T03:41:11.061Z,100588.86
2022-10-09T03:42:11.062Z,100589.53
2022-10-09T03:43:11.062Z,100589.70
2022-10-09T03:44:11.059Z,100588.74
2022-10-09T03:45:11.061Z,100586.36
2022-10-09T03:46:11.151Z,100583.07
2022-10-09T03:47:11.058Z,100582.14
2022-10-09T03:48:11.059Z,100581.33
2022-10-09T03:49:11.067Z,100582.40
2022-10-09T03:50:11.060Z,100581.98
2022-10-09T03:51:11.061Z,100578.95
2022-10-09T03:52:11.067Z,100582.43
2022-10-09T03:53:11.058Z,100581.56
2022-10-09T03:54:11.065Z,100577.85
2022-10-09T03:55:11.067Z,100580.04
2022-10-09T03:56:11.062Z,100572.54
2022-10-09T03:57:11.061Z,100574.21
2022-10-09T03:58:11.067Z,100575.42
2022-10-09T03:59:11.059Z,100573.85
2022-10-09T04:00:11.062Z,100573.80
2022-10-09T04:01:11.103Z,100573.50
2022-10-09T04:02:11.125Z,100578.58
2022-10-09T04:03:11.061Z,100575.47
2022-10-09T04:04:11.063Z,100574.82
2022-10-09T04:05:11.059Z,100572.95
2022-10-09T04:06:11.063Z,100574.79
2022-10-09T04:07:11.072Z,100573.65
2022-10-09T04:08:11.059Z,100575.71
2022-10-09T04:09:11.062Z,100572.79
2022-10-09T04:10:11.069Z,100576.40
2022-10-09T04:11:11.062Z,100570.91
2022-10-09T04:12:11.065Z,100565.90
2022-10-09T04:13:11.068Z,100562.29
2022-10-09T04:14:11.061Z,100566.93
2022-10-09T04:15:11.065Z,100564.20
2022-10-09T04:16:11.120Z,100561.46
2022-10-09T04:17:11.060Z,100562.16
2022-10-09T04:18:11.066Z,100563.73
2022-10-09T04:19:11.070Z,100568.41
2022-10-09T04:20:11.061Z,100564.61
2022-10-09T04:21:11.057Z,100567.43
2022-10-09T04:22:11.057Z,100565.68
2022-10-09T04:23:11.054Z,100562.95
2022-10-09T04:24:12.056Z,100560.27
2022-10-09T04:25:11.060Z,100561.43
2022-10-09T04:26:12.066Z,100563.91
2022-10-09T04:27:11.057Z,100560.16
2022-10-09T04:28:11.075Z,100561.33
2022-10-09T04:29:11.056Z,100555.61
2022-10-09T04:30:11.058Z,100559.86
2022-10-09T04:31:11.121Z,100558.94
2022-10-09T04:32:11.057Z,100554.99
2022-10-09T04:33:12.952Z,100554.46
2022-10-09T04:34:11.060Z,100554.45
2022-10-09T04:35:11.074Z,100555.75
2022-10-09T04:36:11.059Z,100551.12
2022-10-09T04:37:11.065Z,100550.43
2022-10-09T04:38:11.057Z,100551.81
2022-10-09T04:39:11.061Z,100551.70
2022-10-09T04:40:11.075Z,100549.57
2022-10-09T04:41:11.061Z,100550.16
2022-10-09T04:42:11.055Z,100550.17
2022-10-09T04:43:11.062Z,100546.38
2022-10-09T04:44:11.061Z,100547.91
2022-10-09T04:45:11.058Z,100547.31
2022-10-09T04:46:12.175Z,100544.95
2022-10-09T04:47:11.494Z,100543.41
2022-10-09T04:48:11.064Z,100546.86
2022-10-09T04:49:13.058Z,100545.48
2022-10-09T04:50:11.060Z,100547.54
2022-10-09T04:51:11.057Z,100547.08
2022-10-09T04:52:11.058Z,100545.70
2022-10-09T04:53:11.066Z,100543.37
2022-10-09T04:54:11.059Z,100542.84
2022-10-09T04:55:11.061Z,100546.50
2022-10-09T04:56:15.067Z,100544.89
2022-10-09T04:57:11.058Z,100543.83
2022-10-09T04:58:11.058Z,100541.47
2022-10-09T04:59:11.058Z,100540.37
2022-10-09T05:00:11.061Z,100536.05
2022-10-09T05:01:21.286Z,100537.87
2022-10-09T05:02:11.077Z,100534.11
2022-10-09T05:03:11.068Z,100532.08
2022-10-09T05:04:11.062Z,100528.45
2022-10-09T05:05:11.056Z,100530.08
2022-10-09T05:06:11.069Z,100529.27
2022-10-09T05:07:11.060Z,100527.95
2022-10-09T05:08:11.059Z,100526.76
2022-10-09T05:09:11.064Z,100523.65
2022-10-09T05:10:11.062Z,100523.07
2022-10-09T05:11:11.056Z,100515.12
2022-10-09T05:12:11.058Z,100515.97
2022-10-09T05:13:11.062Z,100515.66
2022-10-09T05:14:11.059Z,100513.37
2022-10-09T05:15:11.060Z,100514.60
2022-10-09T05:16:11.140Z,100512.89
2022-10-09T05:17:14.825Z,100514.90
2022-10-09T05:18:11.065Z,100509.88
2022-10-09T05:19:11.068Z,100507.15
2022-10-09T05:20:11.060Z,100506.27
2022-10-09T05:21:11.060Z,100501.27
2022-10-09T05:22:11.066Z,100504.70
2022-10-09T05:23:11.058Z,100505.56
2022-10-09T05:24:11.062Z,100501.41
2022-10-09T05:25:11.068Z,100503.52
2022-10-09T05:26:14.058Z,100499.32
2022-10-09T05:27:11.062Z,100498.51
2022-10-09T05:28:11.110Z,100499.87
2022-10-09T05:29:11.059Z,100496.47
2022-10-09T05:30:11.068Z,100495.92
2022-10-09T05:31:14.110Z,100495.86
2022-10-09T05:32:11.097Z,100494.39
2022-10-09T05:33:11.060Z,100490.91
2022-10-09T05:34:11.063Z,100493.90
2022-10-09T05:35:11.061Z,100494.97
2022-10-09T05:36:11.058Z,100493.60
2022-10-09T05:37:11.063Z,100489.31
2022-10-09T05:38:11.061Z,100495.41
2022-10-09T05:39:11.060Z,100488.25
2022-10-09T05:40:11.059Z,100487.61
2022-10-09T05:41:11.062Z,100486.18
2022-10-09T05:42:11.061Z,100488.01
2022-10-09T05:43:11.061Z,100489.52
2022-10-09T05:44:11.063Z,100486.99
2022-10-09T05:45:11.061Z,100484.04
2022-10-09T05:46:14.124Z,100486.21
2022-10-09T05:47:11.068Z,100482.20
2022-10-09T05:48:11.061Z,100483.94
2022-10-09T05:49:11.061Z,100485.97
2022-10-09T05:50:11.070Z,100487.62
2022-10-09T05:51:18.061Z,100485.72
2022-10-09T05:52:11.068Z,100484.54
2022-10-09T05:53:11.070Z,100483.53
2022-10-09T05:54:13.060Z,100477.43
2022-10-09T05:55:11.066Z,100480.09
2022-10-09T05:56:22.065Z,100481.45
2022-10-09T05:57:11.063Z,100488.09
2022-10-09T05:58:11.059Z,100486.84
2022-10-09T05:59:11.062Z,100487.14
2022-10-09T06:00:11.062Z,100490.21
2022-10-09T06:01:11.117Z,100489.82
2022-10-09T06:02:11.198Z,100484.35
2022-10-09T06:03:11.064Z,100488.84
2022-10-09T06:04:16.070Z,100481.90
2022-10-09T06:05:11.062Z,100485.35
2022-10-09T06:06:11.064Z,100483.00
2022-10-09T06:07:11.063Z,100484.63
2022-10-09T06:08:11.062Z,100481.69
2022-10-09T06:09:11.084Z,100485.11
2022-10-09T06:10:11.064Z,100480.40
2022-10-09T06:11:18.064Z,100484.67
2022-10-09T06:12:11.067Z,100484.11
2022-10-09T06:13:11.064Z,100486.61
2022-10-09T06:14:11.063Z,100484.91
2022-10-09T06:15:11.067Z,100481.20
2022-10-09T06:16:11.135Z,100481.87
2022-10-09T06:17:11.065Z,100479.71
2022-10-09T06:18:11.064Z,100482.26
2022-10-09T06:19:12.064Z,100473.87
2022-10-09T06:20:11.062Z,100480.54
2022-10-09T06:21:11.065Z,100475.79
2022-10-09T06:22:11.069Z,100475.45
2022-10-09T06:23:11.060Z,100473.74
2022-10-09T06:24:18.062Z,100475.67
2022-10-09T06:25:11.062Z,100473.00
2022-10-09T06:26:13.061Z,100474.00
2022-10-09T06:27:11.061Z,100474.46
2022-10-09T06:28:11.129Z,100473.69
2022-10-09T06:29:11.067Z,100469.92
2022-10-09T06:30:11.059Z,100470.91
2022-10-09T06:31:14.148Z,100471.03
2022-10-09T06:32:11.071Z,100469.33
2022-10-09T06:33:11.060Z,100469.35
2022-10-09T06:34:11.062Z,100468.30
2022-10-09T06:35:11.060Z,100464.59
2022-10-09T06:36:14.072Z,100464.75
2022-10-09T06:37:11.060Z,100463.89
2022-10-09T06:38:11.060Z,100462.95
2022-10-09T06:39:12.072Z,100462.12
2022-10-09T06:40:11.061Z,100459.85
2022-10-09T06:41:17.063Z,100456.75
2022-10-09T06:42:11.063Z,100457.11
2022-10-09T06:43:11.062Z,100458.90
2022-10-09T06:44:16.324Z,100457.59
2022-10-09T06:45:11.061Z,100454.99
2022-10-09T06:46:11.204Z,100452.89
2022-10-09T06:47:11.061Z,100454.86
2022-10-09T06:48:11.061Z,100447.68
2022-10-09T06:49:11.063Z,100447.33
2022-10-09T06:50:11.059Z,100447.95
2022-10-09T06:51:12.072Z,100447.13
2022-10-09T06:52:11.063Z,100443.80
2022-10-09T06:53:11.062Z,100442.05
2022-10-09T06:54:13.064Z,100444.87
2022-10-09T06:55:11.063Z,100444.31
2022-10-09T06:56:11.062Z,100442.47
2022-10-09T06:57:11.067Z,100440.96
2022-10-09T06:58:11.065Z,100443.36
2022-10-09T06:59:11.062Z,100441.33
2022-10-09T07:00:11.069Z,100444.83
2022-10-09T07:01:17.148Z,100442.87
2022-10-09T07:02:11.135Z,100448.20
2022-10-09T07:03:11.176Z,100447.93
2022-10-09T07:04:14.063Z,100446.14
2022-10-09T07:05:11.062Z,100444.10
2022-10-09T07:06:16.063Z,100443.79
2022-10-09T07:07:11.070Z,100441.45
2022-10-09T07:08:11.066Z,100437.35
2022-10-09T07:09:11.066Z,100439.05
2022-10-09T07:10:11.072Z,100438.13
2022-10-09T07:11:14.066Z,100439.29
2022-10-09T07:12:11.062Z,100439.89
2022-10-09T07:13:11.067Z,100439.17
2022-10-09T07:14:11.065Z,100440.45
2022-10-09T07:15:11.059Z,100439.39
2022-10-09T07:16:11.159Z,100438.11
2022-10-09T07:17:11.066Z,100440.29
2022-10-09T07:18:11.065Z,100437.79
2022-10-09T07:19:12.072Z,100440.17
2022-10-09T07:20:11.065Z,100439.65
2022-10-09T07:21:11.064Z,100437.05
2022-10-09T07:22:15.066Z,100442.85
2022-10-09T07:23:11.057Z,100440.09
2022-10-09T07:24:11.058Z,100439.44
2022-10-09T07:25:11.056Z,100435.55
2022-10-09T07:26:14.058Z,100436.64
2022-10-09T07:27:11.059Z,100435.59
2022-10-09T07:28:11.165Z,100431.50
2022-10-09T07:29:11.060Z,100434.33
2022-10-09T07:30:11.057Z,100435.37
2022-10-09T07:31:11.161Z,100431.43
2022-10-09T07:32:11.065Z,100429.66
2022-10-09T07:33:11.056Z,100433.38
2022-10-09T07:34:11.061Z,100430.49
2022-10-09T07:35:11.061Z,100427.30
2022-10-09T07:36:11.060Z,100428.59
2022-10-09T07:37:11.058Z,100428.79
2022-10-09T07:38:11.060Z,100427.29
2022-10-09T07:39:11.056Z,100431.45
2022-10-09T07:40:11.083Z,100427.64
2022-10-09T07:41:12.060Z,100424.10
2022-10-09T07:42:11.090Z,100423.68
2022-10-09T07:43:11.065Z,100419.06
2022-10-09T07:44:11.060Z,100422.03
2022-10-09T07:45:11.055Z,100421.32
2022-10-09T07:46:13.096Z,100421.30
2022-10-09T07:47:11.061Z,100420.88
2022-10-09T07:48:11.055Z,100417.89
2022-10-09T07:49:11.063Z,100416.54
2022-10-09T07:50:11.060Z,100415.06
2022-10-09T07:51:15.063Z,100413.71
2022-10-09T07:52:11.061Z,100411.66
2022-10-09T07:53:11.060Z,100408.73
2022-10-09T07:54:11.059Z,100411.93
2022-10-09T07:55:11.059Z,100411.12
2022-10-09T07:56:18.061Z,100408.89
2022-10-09T07:57:11.058Z,100406.32
2022-10-09T07:58:11.064Z,100409.49
2022-10-09T07:59:14.070Z,100407.66
2022-10-09T08:00:11.063Z,100404.86
2022-10-09T08:01:12.440Z,100404.85
2022-10-09T08:02:11.117Z,100403.37
2022-10-09T08:03:11.101Z,100407.66
2022-10-09T08:04:11.063Z,100405.58
2022-10-09T08:05:11.067Z,100408.43
2022-10-09T08:06:11.058Z,100408.10
2022-10-09T08:07:11.063Z,100404.98
2022-10-09T08:08:11.070Z,100403.29
2022-10-09T08:09:11.060Z,100399.75
2022-10-09T08:10:11.063Z,100394.50
2022-10-09T08:11:14.068Z,100390.88
2022-10-09T08:12:11.063Z,100394.30
2022-10-09T08:13:11.058Z,100392.26
2022-10-09T08:14:16.592Z,100395.36
2022-10-09T08:15:13.824Z,100391.04
2022-10-09T08:16:11.119Z,100388.58
2022-10-09T08:17:11.063Z,100386.10
2022-10-09T08:18:11.070Z,100383.82
2022-10-09T08:19:11.062Z,100388.18
2022-10-09T08:20:11.063Z,100383.42
2022-10-09T08:21:14.060Z,100384.35
2022-10-09T08:22:11.055Z,100378.35
2022-10-09T08:23:11.059Z,100384.38
2022-10-09T08:24:12.068Z,100380.94
2022-10-09T08:25:11.060Z,100379.78
2022-10-09T08:26:15.061Z,100379.03
2022-10-09T08:27:11.064Z,100380.45
2022-10-09T08:28:11.146Z,100380.54
2022-10-09T08:29:12.058Z,100376.81
2022-10-09T08:30:11.060Z,100374.55
2022-10-09T08:31:13.175Z,100376.22
2022-10-09T08:32:11.061Z,100377.55
2022-10-09T08:33:11.062Z,100372.54
2022-10-09T08:34:11.066Z,100371.27
2022-10-09T08:35:11.063Z,100369.55
2022-10-09T08:36:11.064Z,100376.89
2022-10-09T08:37:11.067Z,100374.40
2022-10-09T08:38:25.343Z,100372.58
2022-10-09T08:39:13.089Z,100375.63
2022-10-09T08:40:16.064Z,100375.16
2022-10-09T08:41:15.060Z,100370.33
2022-10-09T08:42:19.058Z,100368.52
2022-10-09T08:43:17.063Z,100367.07
2022-10-09T08:44:19.062Z,100366.61
2022-10-09T08:45:15.068Z,100365.81
2022-10-09T08:46:22.115Z,100365.75
2022-10-09T08:47:21.061Z,100366.07
2022-10-09T08:48:20.060Z,100367.03
2022-10-09T08:49:21.063Z,100365.55
2022-10-09T08:50:25.066Z,100365.11
2022-10-09T08:51:21.070Z,100362.46
2022-10-09T08:52:19.067Z,100367.44
2022-10-09T08:53:18.068Z,100361.95
2022-10-09T08:54:21.061Z,100361.41
2022-10-09T08:55:19.066Z,100366.57
2022-10-09T08:56:14.061Z,100361.04
2022-10-09T08:57:14.073Z,100361.88
2022-10-09T08:58:15.062Z,100357.52
2022-10-09T08:59:11.058Z,100359.12
2022-10-09T09:00:17.069Z,100358.15
2022-10-09T09:01:24.137Z,100354.32
2022-10-09T09:02:19.118Z,100355.58
2022-10-09T09:03:19.099Z,100353.95
2022-10-09T09:04:19.063Z,100352.90
2022-10-09T09:05:21.066Z,100346.79
2022-10-09T09:06:21.075Z,100344.93
2022-10-09T09:07:21.064Z,100347.57
2022-10-09T09:08:19.061Z,100347.80
2022-10-09T09:09:19.061Z,100341.83
2022-10-09T09:10:19.061Z,100339.32
2022-10-09T09:11:21.677Z,100342.61
2022-10-09T09:12:19.065Z,100344.63
2022-10-09T09:13:19.062Z,100334.86
2022-10-09T09:14:19.064Z,100333.77
2022-10-09T09:15:19.065Z,100332.73
2022-10-09T09:16:19.113Z,100335.50
2022-10-09T09:17:21.062Z,100332.28
2022-10-09T09:18:19.062Z,100327.12
2022-10-09T09:19:19.065Z,100329.55
2022-10-09T09:20:20.065Z,100326.86
2022-10-09T09:21:21.065Z,100326.87
2022-10-09T09:22:16.067Z,100324.82
2022-10-09T09:23:15.060Z,100322.52
2022-10-09T09:24:17.058Z,100323.12
2022-10-09T09:25:21.061Z,100322.45
2022-10-09T09:26:17.058Z,100318.66
2022-10-09T09:27:16.060Z,100316.05
2022-10-09T09:28:18.106Z,100316.38
2022-10-09T09:29:14.058Z,100306.55
2022-10-09T09:30:19.062Z,100311.43
2022-10-09T09:31:19.152Z,100306.88
2022-10-09T09:32:17.057Z,100303.19
2022-10-09T09:33:21.056Z,100298.98
2022-10-09T09:34:20.060Z,100301.38
2022-10-09T09:35:19.067Z,100300.25
2022-10-09T09:36:16.060Z,100297.32
2022-10-09T09:37:12.071Z,100296.68
2022-10-09T09:38:11.059Z,100297.87
2022-10-09T09:39:55.671Z,100298.39
2022-10-09T09:40:36.091Z,100298.68
2022-10-09T09:41:13.061Z,100297.51
2022-10-09T09:42:17.063Z,100296.54
2022-10-09T09:43:18.061Z,100294.62
2022-10-09T09:44:12.068Z,100290.05
2022-10-09T09:45:17.074Z,100289.32
2022-10-09T09:46:16.135Z,100294.16
2022-10-09T09:47:16.062Z,100294.92
2022-10-09T09:48:17.077Z,100294.54
2022-10-09T09:49:18.058Z,100286.34
2022-10-09T09:50:28.596Z,100289.95
2022-10-09T09:51:29.362Z,100290.08
2022-10-09T09:52:13.078Z,100284.21
2022-10-09T09:53:19.062Z,100284.71
2022-10-09T09:54:18.060Z,100278.64
2022-10-09T09:55:19.065Z,100284.63
2022-10-09T09:56:11.065Z,100278.17
2022-10-09T09:57:17.083Z,100277.59
2022-10-09T09:58:18.074Z,100279.13
2022-10-09T09:59:19.063Z,100282.84
2022-10-09T10:00:18.062Z,100273.52
2022-10-09T10:01:21.131Z,100275.01
2022-10-09T10:02:19.160Z,100275.63
2022-10-09T10:03:15.065Z,100270.58
2022-10-09T10:04:18.062Z,100271.87
2022-10-09T10:05:20.066Z,100272.96
2022-10-09T10:06:20.074Z,100269.09
2022-10-09T10:07:11.065Z,100272.62
2022-10-09T10:08:15.065Z,100272.19
2022-10-09T10:09:15.064Z,100261.61
2022-10-09T10:10:18.719Z,100263.26
2022-10-09T10:11:17.082Z,100254.82
2022-10-09T10:12:16.077Z,100258.08
2022-10-09T10:13:16.068Z,100250.69
2022-10-09T10:14:13.065Z,100255.26
2022-10-09T10:15:19.064Z,100255.17
2022-10-09T10:16:15.155Z,100257.93
2022-10-09T10:17:19.071Z,100253.32
2022-10-09T10:18:16.066Z,100254.68
2022-10-09T10:19:21.065Z,100250.20
2022-10-09T10:20:13.060Z,100254.87
2022-10-09T10:21:15.061Z,100247.90
2022-10-09T10:22:19.060Z,100249.28
2022-10-09T10:23:19.058Z,100247.01
2022-10-09T10:24:15.072Z,100246.10
2022-10-09T10:25:16.283Z,100244.96
2022-10-09T10:26:19.058Z,100242.57
2022-10-09T10:27:19.065Z,100242.94
2022-10-09T10:28:17.138Z,100243.73
2022-10-09T10:29:16.062Z,100244.12
2022-10-09T10:30:15.061Z,100236.05
2022-10-09T10:31:16.130Z,100236.54
2022-10-09T10:32:19.064Z,100235.21
2022-10-09T10:33:18.066Z,100235.94
2022-10-09T10:34:17.072Z,100228.29
2022-10-09T10:35:15.060Z,100229.35
2022-10-09T10:36:11.055Z,100225.82
2022-10-09T10:37:19.067Z,100224.72
2022-10-09T10:38:19.062Z,100229.82
2022-10-09T10:39:18.068Z,100220.76
2022-10-09T10:40:19.070Z,100217.35
2022-10-09T10:41:17.060Z,100227.35
2022-10-09T10:42:19.068Z,100225.55
2022-10-09T10:43:20.062Z,100223.15
2022-10-09T10:44:19.061Z,100221.29
2022-10-09T10:45:19.059Z,100214.21
2022-10-09T10:46:21.146Z,100229.85
2022-10-09T10:47:16.063Z,100213.86
2022-10-09T10:48:16.062Z,100212.66
2022-10-09T10:49:11.060Z,100215.36
2022-10-09T10:50:15.062Z,100211.18
2022-10-09T10:51:21.069Z,100215.77
2022-10-09T10:52:19.066Z,100210.36
2022-10-09T10:53:19.061Z,100206.68
2022-10-09T10:54:19.064Z,100206.94
2022-10-09T10:55:21.061Z,100204.80
2022-10-09T10:56:19.069Z,100204.32
2022-10-09T10:57:20.094Z,100204.88
2022-10-09T10:58:19.064Z,100201.62
2022-10-09T10:59:19.063Z,100205.07
2022-10-09T11:00:11.067Z,100206.61
2022-10-09T11:01:21.124Z,100206.18
2022-10-09T11:02:19.064Z,100195.46
2022-10-09T11:03:21.147Z,100205.09
2022-10-09T11:04:21.071Z,100193.87
2022-10-09T11:05:19.063Z,100193.07
2022-10-09T11:06:19.071Z,100197.11
2022-10-09T11:07:19.064Z,100193.29
2022-10-09T11:08:19.061Z,100187.84
2022-10-09T11:09:19.068Z,100189.71
2022-10-09T11:10:19.067Z,100190.36
2022-10-09T11:11:19.065Z,100185.31
2022-10-09T11:12:43.341Z,100189.63
2022-10-09T11:13:21.836Z,100188.44
2022-10-09T11:14:20.333Z,100186.57
2022-10-09T11:15:19.073Z,100184.00
2022-10-09T11:16:19.213Z,100184.64
2022-10-09T11:17:21.065Z,100180.42
2022-10-09T11:18:21.067Z,100177.37
2022-10-09T11:19:21.068Z,100186.07
2022-10-09T11:20:19.065Z,100176.61
2022-10-09T11:21:18.083Z,100180.39
2022-10-09T11:22:19.059Z,100177.91
2022-10-09T11:23:19.062Z,100177.07
2022-10-09T11:24:19.056Z,100168.64